sensor_id;sensor_type;location;lat;lon;timestamp;P1;durP1;ratioP1;P2;durP2;ratioP2
15114;SDS011;7658;51.456;7.622;2024-03-23T00:55:41;24.43;;;9.47;;
15114;SDS011;7658;51.456;7.622;2024-03-23T00:58:07;28.73;;;8.77;;
15114;SDS011;7658;51.456;7.622;2024-03-23T01:00:33;27.87;;;9.77;;
15114;SDS011;7658;51.456;7.622;2024-03-23T01:02:59;26.43;;;8.50;;
15114;SDS011;7658;51.456;7.622;2024-03-23T01:05:25;26.33;;;8.37;;
15114;SDS011;7658;51.456;7.622;2024-03-23T01:07:50;23.93;;;9.40;;
15114;SDS011;7658;51.456;7.622;2024-03-23T01:10:16;35.27;;;8.97;;
15114;SDS011;7658;51.456;7.622;2024-03-23T01:12:42;29.27;;;9.47;;
15114;SDS011;7658;51.456;7.622;2024-03-23T01:15:08;20.80;;;8.93;;
15114;SDS011;7658;51.456;7.622;2024-03-23T01:17:34;26.67;;;8.83;;
15114;SDS011;7658;51.456;7.622;2024-03-23T01:19:59;24.00;;;9.20;;
15114;SDS011;7658;51.456;7.622;2024-03-23T01:22:25;25.83;;;9.90;;
15114;SDS011;7658;51.456;7.622;2024-03-23T01:24:51;25.83;;;9.60;;
15114;SDS011;7658;51.456;7.622;2024-03-23T01:27:17;25.50;;;8.73;;
15114;SDS011;7658;51.456;7.622;2024-03-23T01:29:43;23.47;;;9.80;;
15114;SDS011;7658;51.456;7.622;2024-03-23T01:32:09;24.43;;;9.70;;
15114;SDS011;7658;51.456;7.622;2024-03-23T01:34:35;21.00;;;9.53;;
15114;SDS011;7658;51.456;7.622;2024-03-23T01:37:00;23.43;;;10.47;;
15114;SDS011;7658;51.456;7.622;2024-03-23T01:39:26;27.03;;;9.53;;
15114;SDS011;7658;51.456;7.622;2024-03-23T01:41:52;25.57;;;9.23;;
15114;SDS011;7658;51.456;7.622;2024-03-23T01:44:18;26.67;;;9.37;;
15114;SDS011;7658;51.456;7.622;2024-03-23T01:46:44;21.57;;;8.40;;
15114;SDS011;7658;51.456;7.622;2024-03-23T01:49:10;24.03;;;7.87;;
15114;SDS011;7658;51.456;7.622;2024-03-23T01:51:36;21.80;;;7.90;;
15114;SDS011;7658;51.456;7.622;2024-03-23T01:54:03;18.10;;;7.60;;
15114;SDS011;7658;51.456;7.622;2024-03-23T01:56:29;14.47;;;6.87;;
15114;SDS011;7658;51.456;7.622;2024-03-23T01:58:58;11.83;;;7.20;;
15114;SDS011;7658;51.456;7.622;2024-03-23T02:01:24;17.57;;;7.30;;
15114;SDS011;7658;51.456;7.622;2024-03-23T02:03:50;13.63;;;6.60;;
15114;SDS011;7658;51.456;7.622;2024-03-23T02:06:15;20.63;;;8.33;;
15114;SDS011;7658;51.456;7.622;2024-03-23T02:08:41;19.57;;;6.87;;
15114;SDS011;7658;51.456;7.622;2024-03-23T02:11:08;16.00;;;7.37;;
15114;SDS011;7658;51.456;7.622;2024-03-23T02:13:34;15.10;;;7.90;;
15114;SDS011;7658;51.456;7.622;2024-03-23T02:16:00;23.80;;;8.53;;
15114;SDS011;7658;51.456;7.622;2024-03-23T02:18:26;21.17;;;8.33;;
15114;SDS011;7658;51.456;7.622;2024-03-23T02:20:52;19.80;;;8.47;;
15114;SDS011;7658;51.456;7.622;2024-03-23T02:23:18;12.73;;;7.03;;
15114;SDS011;7658;51.456;7.622;2024-03-23T02:25:44;20.10;;;8.10;;
15114;SDS011;7658;51.456;7.622;2024-03-23T02:28:10;15.37;;;6.87;;
15114;SDS011;7658;51.456;7.622;2024-03-23T02:30:36;14.60;;;6.57;;
15114;SDS011;7658;51.456;7.622;2024-03-23T02:33:02;14.23;;;6.27;;
15114;SDS011;7658;51.456;7.622;2024-03-23T02:35:28;14.80;;;5.80;;
15114;SDS011;7658;51.456;7.622;2024-03-23T02:37:54;11.90;;;6.00;;
15114;SDS011;7658;51.456;7.622;2024-03-23T02:40:22;11.07;;;6.07;;
15114;SDS011;7658;51.456;7.622;2024-03-23T02:42:48;13.10;;;5.80;;
15114;SDS011;7658;51.456;7.622;2024-03-23T02:45:14;8.90;;;4.90;;
15114;SDS011;7658;51.456;7.622;2024-03-23T02:47:40;11.13;;;5.70;;
15114;SDS011;7658;51.456;7.622;2024-03-23T02:50:06;17.90;;;6.10;;
15114;SDS011;7658;51.456;7.622;2024-03-23T02:52:32;16.73;;;6.10;;
15114;SDS011;7658;51.456;7.622;2024-03-23T02:54:58;10.57;;;5.27;;
15114;SDS011;7658;51.456;7.622;2024-03-23T02:57:24;11.37;;;5.87;;
15114;SDS011;7658;51.456;7.622;2024-03-23T02:59:50;11.53;;;5.67;;
15114;SDS011;7658;51.456;7.622;2024-03-23T03:02:15;7.77;;;5.57;;
15114;SDS011;7658;51.456;7.622;2024-03-23T03:04:41;13.50;;;5.67;;
15114;SDS011;7658;51.456;7.622;2024-03-23T03:07:07;12.03;;;6.27;;
15114;SDS011;7658;51.456;7.622;2024-03-23T03:09:33;13.70;;;6.03;;
15114;SDS011;7658;51.456;7.622;2024-03-23T03:12:00;14.23;;;5.93;;
15114;SDS011;7658;51.456;7.622;2024-03-23T03:14:27;15.73;;;5.63;;
15114;SDS011;7658;51.456;7.622;2024-03-23T03:16:53;13.07;;;6.40;;
15114;SDS011;7658;51.456;7.622;2024-03-23T03:19:19;9.50;;;6.53;;
15114;SDS011;7658;51.456;7.622;2024-03-23T03:21:45;11.13;;;6.60;;
15114;SDS011;7658;51.456;7.622;2024-03-23T03:24:10;8.47;;;6.07;;
15114;SDS011;7658;51.456;7.622;2024-03-23T03:26:36;14.27;;;6.07;;
15114;SDS011;7658;51.456;7.622;2024-03-23T03:29:02;11.87;;;6.00;;
15114;SDS011;7658;51.456;7.622;2024-03-23T03:31:28;11.03;;;5.60;;
15114;SDS011;7658;51.456;7.622;2024-03-23T03:33:53;13.07;;;6.27;;
15114;SDS011;7658;51.456;7.622;2024-03-23T03:36:19;10.30;;;5.37;;
15114;SDS011;7658;51.456;7.622;2024-03-23T03:38:46;16.07;;;6.37;;
15114;SDS011;7658;51.456;7.622;2024-03-23T03:41:11;13.03;;;5.57;;
15114;SDS011;7658;51.456;7.622;2024-03-23T03:43:37;7.47;;;5.17;;
15114;SDS011;7658;51.456;7.622;2024-03-23T03:46:03;13.27;;;5.50;;
15114;SDS011;7658;51.456;7.622;2024-03-23T03:48:29;12.20;;;5.53;;
15114;SDS011;7658;51.456;7.622;2024-03-23T03:50:55;13.83;;;6.20;;
15114;SDS011;7658;51.456;7.622;2024-03-23T03:53:21;13.20;;;5.40;;
15114;SDS011;7658;51.456;7.622;2024-03-23T03:55:47;7.03;;;5.37;;
15114;SDS011;7658;51.456;7.622;2024-03-23T03:58:13;6.77;;;5.10;;
15114;SDS011;7658;51.456;7.622;2024-03-23T04:00:39;11.83;;;5.30;;
15114;SDS011;7658;51.456;7.622;2024-03-23T04:03:05;13.73;;;5.70;;
15114;SDS011;7658;51.456;7.622;2024-03-23T04:05:31;9.50;;;5.50;;
15114;SDS011;7658;51.456;7.622;2024-03-23T04:07:56;11.93;;;5.40;;
15114;SDS011;7658;51.456;7.622;2024-03-23T04:10:22;7.60;;;5.23;;
15114;SDS011;7658;51.456;7.622;2024-03-23T04:12:48;10.97;;;5.37;;
15114;SDS011;7658;51.456;7.622;2024-03-23T04:15:14;13.60;;;6.00;;
15114;SDS011;7658;51.456;7.622;2024-03-23T04:17:40;12.03;;;5.67;;
15114;SDS011;7658;51.456;7.622;2024-03-23T04:20:07;15.60;;;6.30;;
15114;SDS011;7658;51.456;7.622;2024-03-23T04:22:36;12.10;;;5.70;;
15114;SDS011;7658;51.456;7.622;2024-03-23T04:25:05;17.13;;;6.13;;
15114;SDS011;7658;51.456;7.622;2024-03-23T04:27:35;10.83;;;5.53;;
15114;SDS011;7658;51.456;7.622;2024-03-23T04:30:04;15.40;;;5.90;;
15114;SDS011;7658;51.456;7.622;2024-03-23T04:32:35;15.70;;;6.53;;
15114;SDS011;7658;51.456;7.622;2024-03-23T04:35:01;18.87;;;6.53;;
15114;SDS011;7658;51.456;7.622;2024-03-23T04:37:30;15.67;;;5.93;;
15114;SDS011;7658;51.456;7.622;2024-03-23T04:40:00;13.80;;;6.20;;
15114;SDS011;7658;51.456;7.622;2024-03-23T04:42:26;18.23;;;6.00;;
15114;SDS011;7658;51.456;7.622;2024-03-23T04:44:53;12.90;;;6.10;;
15114;SDS011;7658;51.456;7.622;2024-03-23T04:47:19;9.63;;;5.73;;
15114;SDS011;7658;51.456;7.622;2024-03-23T04:49:44;16.07;;;6.50;;
15114;SDS011;7658;51.456;7.622;2024-03-23T04:52:10;16.60;;;6.63;;
15114;SDS011;7658;51.456;7.622;2024-03-23T04:54:37;12.03;;;6.13;;
15114;SDS011;7658;51.456;7.622;2024-03-23T04:57:05;13.63;;;5.93;;
15114;SDS011;7658;51.456;7.622;2024-03-23T04:59:31;11.97;;;6.30;;
15114;SDS011;7658;51.456;7.622;2024-03-23T05:01:57;11.77;;;6.30;;
15114;SDS011;7658;51.456;7.622;2024-03-23T05:04:23;9.50;;;5.80;;
15114;SDS011;7658;51.456;7.622;2024-03-23T05:06:48;18.03;;;6.57;;
15114;SDS011;7658;51.456;7.622;2024-03-23T05:09:14;18.53;;;6.70;;
15114;SDS011;7658;51.456;7.622;2024-03-23T05:11:40;16.23;;;6.97;;
15114;SDS011;7658;51.456;7.622;2024-03-23T05:14:10;20.93;;;7.97;;
15114;SDS011;7658;51.456;7.622;2024-03-23T05:16:39;14.13;;;6.40;;
15114;SDS011;7658;51.456;7.622;2024-03-23T05:19:05;18.13;;;6.63;;
15114;SDS011;7658;51.456;7.622;2024-03-23T05:21:31;15.20;;;7.00;;
15114;SDS011;7658;51.456;7.622;2024-03-23T05:23:57;17.47;;;7.90;;
15114;SDS011;7658;51.456;7.622;2024-03-23T05:26:23;14.40;;;7.17;;
15114;SDS011;7658;51.456;7.622;2024-03-23T05:28:49;17.63;;;7.87;;
15114;SDS011;7658;51.456;7.622;2024-03-23T05:31:24;13.80;;;7.27;;
15114;SDS011;7658;51.456;7.622;2024-03-23T05:33:50;16.50;;;7.87;;
15114;SDS011;7658;51.456;7.622;2024-03-23T05:36:17;17.10;;;7.57;;
15114;SDS011;7658;51.456;7.622;2024-03-23T05:38:43;16.63;;;7.43;;
15114;SDS011;7658;51.456;7.622;2024-03-23T05:41:08;19.63;;;6.70;;
15114;SDS011;7658;51.456;7.622;2024-03-23T05:43:35;18.37;;;7.47;;
15114;SDS011;7658;51.456;7.622;2024-03-23T05:46:00;17.00;;;7.43;;
15114;SDS011;7658;51.456;7.622;2024-03-23T05:48:27;13.80;;;6.93;;
15114;SDS011;7658;51.456;7.622;2024-03-23T05:50:53;20.77;;;8.47;;
15114;SDS011;7658;51.456;7.622;2024-03-23T05:53:19;17.43;;;8.20;;
15114;SDS011;7658;51.456;7.622;2024-03-23T05:55:45;24.43;;;8.43;;
15114;SDS011;7658;51.456;7.622;2024-03-23T05:58:14;16.07;;;8.13;;
15114;SDS011;7658;51.456;7.622;2024-03-23T06:00:41;21.50;;;8.50;;
15114;SDS011;7658;51.456;7.622;2024-03-23T06:03:07;17.80;;;8.50;;
15114;SDS011;7658;51.456;7.622;2024-03-23T06:05:34;24.27;;;9.93;;
15114;SDS011;7658;51.456;7.622;2024-03-23T06:07:59;19.83;;;8.73;;
15114;SDS011;7658;51.456;7.622;2024-03-23T06:10:25;24.03;;;10.00;;
15114;SDS011;7658;51.456;7.622;2024-03-23T06:12:51;21.17;;;10.13;;
15114;SDS011;7658;51.456;7.622;2024-03-23T06:15:20;21.33;;;10.87;;
15114;SDS011;7658;51.456;7.622;2024-03-23T06:17:47;21.50;;;9.30;;
15114;SDS011;7658;51.456;7.622;2024-03-23T06:20:13;19.87;;;10.83;;
15114;SDS011;7658;51.456;7.622;2024-03-23T06:22:39;25.67;;;11.80;;
15114;SDS011;7658;51.456;7.622;2024-03-23T06:25:05;22.77;;;11.83;;
15114;SDS011;7658;51.456;7.622;2024-03-23T06:27:32;22.50;;;12.90;;
15114;SDS011;7658;51.456;7.622;2024-03-23T06:29:58;21.47;;;12.13;;
15114;SDS011;7658;51.456;7.622;2024-03-23T06:32:25;24.33;;;12.30;;
15114;SDS011;7658;51.456;7.622;2024-03-23T06:34:50;23.73;;;13.23;;
15114;SDS011;7658;51.456;7.622;2024-03-23T06:37:16;21.67;;;12.43;;
15114;SDS011;7658;51.456;7.622;2024-03-23T06:39:42;25.97;;;13.77;;
15114;SDS011;7658;51.456;7.622;2024-03-23T06:42:10;24.03;;;14.07;;
15114;SDS011;7658;51.456;7.622;2024-03-23T06:44:36;26.90;;;14.30;;
15114;SDS011;7658;51.456;7.622;2024-03-23T06:47:02;33.03;;;15.87;;
15114;SDS011;7658;51.456;7.622;2024-03-23T06:49:27;40.00;;;17.07;;
15114;SDS011;7658;51.456;7.622;2024-03-23T06:51:53;33.67;;;17.80;;
15114;SDS011;7658;51.456;7.622;2024-03-23T06:54:19;35.63;;;18.20;;
15114;SDS011;7658;51.456;7.622;2024-03-23T06:56:45;38.23;;;18.20;;
15114;SDS011;7658;51.456;7.622;2024-03-23T06:59:11;35.13;;;18.73;;
15114;SDS011;7658;51.456;7.622;2024-03-23T07:01:37;36.47;;;18.00;;
15114;SDS011;7658;51.456;7.622;2024-03-23T07:04:03;33.97;;;19.77;;
15114;SDS011;7658;51.456;7.622;2024-03-23T07:06:30;37.50;;;20.30;;
15114;SDS011;7658;51.456;7.622;2024-03-23T07:08:56;45.27;;;22.87;;
15114;SDS011;7658;51.456;7.622;2024-03-23T07:11:22;44.27;;;22.77;;
15114;SDS011;7658;51.456;7.622;2024-03-23T07:13:52;47.47;;;22.10;;
15114;SDS011;7658;51.456;7.622;2024-03-23T07:16:21;53.87;;;25.90;;
15114;SDS011;7658;51.456;7.622;2024-03-23T07:18:47;47.47;;;26.43;;
15114;SDS011;7658;51.456;7.622;2024-03-23T07:21:15;54.90;;;26.03;;
15114;SDS011;7658;51.456;7.622;2024-03-23T07:23:43;52.27;;;27.03;;
15114;SDS011;7658;51.456;7.622;2024-03-23T07:26:12;43.00;;;25.63;;
15114;SDS011;7658;51.456;7.622;2024-03-23T07:28:38;47.43;;;25.87;;
15114;SDS011;7658;51.456;7.622;2024-03-23T07:31:09;53.43;;;25.33;;
15114;SDS011;7658;51.456;7.622;2024-03-23T07:33:36;56.90;;;27.07;;
15114;SDS011;7658;51.456;7.622;2024-03-23T07:36:06;51.03;;;26.27;;
15114;SDS011;7658;51.456;7.622;2024-03-23T07:38:32;42.83;;;24.80;;
15114;SDS011;7658;51.456;7.622;2024-03-23T07:41:11;46.77;;;26.83;;
15114;SDS011;7658;51.456;7.622;2024-03-23T07:43:42;47.77;;;24.33;;
15114;SDS011;7658;51.456;7.622;2024-03-23T07:46:09;42.63;;;23.93;;
15114;SDS011;7658;51.456;7.622;2024-03-23T07:48:34;42.23;;;23.60;;
15114;SDS011;7658;51.456;7.622;2024-03-23T07:51:06;38.00;;;23.20;;
15114;SDS011;7658;51.456;7.622;2024-03-23T07:53:33;33.53;;;23.07;;
15114;SDS011;7658;51.456;7.622;2024-03-23T07:56:02;36.37;;;21.83;;
15114;SDS011;7658;51.456;7.622;2024-03-23T07:58:31;35.60;;;21.10;;
15114;SDS011;7658;51.456;7.622;2024-03-23T08:01:08;38.90;;;21.50;;
15114;SDS011;7658;51.456;7.622;2024-03-23T08:03:37;36.70;;;20.00;;
15114;SDS011;7658;51.456;7.622;2024-03-23T08:06:15;33.60;;;20.07;;
15114;SDS011;7658;51.456;7.622;2024-03-23T08:08:44;31.57;;;19.60;;
15114;SDS011;7658;51.456;7.622;2024-03-23T08:11:11;38.07;;;19.90;;
15114;SDS011;7658;51.456;7.622;2024-03-23T08:13:41;38.40;;;20.13;;
15114;SDS011;7658;51.456;7.622;2024-03-23T08:16:07;32.80;;;19.30;;
15114;SDS011;7658;51.456;7.622;2024-03-23T08:18:37;32.70;;;18.13;;
15114;SDS011;7658;51.456;7.622;2024-03-23T08:21:03;31.50;;;16.27;;
15114;SDS011;7658;51.456;7.622;2024-03-23T08:23:31;30.47;;;17.87;;
15114;SDS011;7658;51.456;7.622;2024-03-23T08:26:03;30.27;;;16.90;;
15114;SDS011;7658;51.456;7.622;2024-03-23T08:28:35;24.93;;;15.37;;
15114;SDS011;7658;51.456;7.622;2024-03-23T08:31:07;20.37;;;13.20;;
15114;SDS011;7658;51.456;7.622;2024-03-23T08:33:34;22.70;;;13.43;;
15114;SDS011;7658;51.456;7.622;2024-03-23T08:36:01;19.87;;;12.60;;
15114;SDS011;7658;51.456;7.622;2024-03-23T08:38:28;19.87;;;12.43;;
15114;SDS011;7658;51.456;7.622;2024-03-23T08:41:07;25.50;;;12.13;;
15114;SDS011;7658;51.456;7.622;2024-03-23T08:43:37;24.57;;;12.87;;
15114;SDS011;7658;51.456;7.622;2024-03-23T08:46:11;22.63;;;12.00;;
15114;SDS011;7658;51.456;7.622;2024-03-23T08:48:38;20.97;;;11.20;;
15114;SDS011;7658;51.456;7.622;2024-03-23T08:51:09;20.47;;;11.47;;
15114;SDS011;7658;51.456;7.622;2024-03-23T08:53:36;19.00;;;10.07;;
15114;SDS011;7658;51.456;7.622;2024-03-23T08:56:02;19.83;;;10.13;;
15114;SDS011;7658;51.456;7.622;2024-03-23T08:58:29;16.27;;;9.23;;
15114;SDS011;7658;51.456;7.622;2024-03-23T09:00:56;13.43;;;8.93;;
15114;SDS011;7658;51.456;7.622;2024-03-23T09:03:28;18.53;;;9.23;;
15114;SDS011;7658;51.456;7.622;2024-03-23T09:05:53;18.70;;;9.07;;
15114;SDS011;7658;51.456;7.622;2024-03-23T09:08:20;18.60;;;9.03;;
15114;SDS011;7658;51.456;7.622;2024-03-23T09:10:47;17.40;;;9.17;;
15114;SDS011;7658;51.456;7.622;2024-03-23T09:13:13;24.67;;;9.43;;
15114;SDS011;7658;51.456;7.622;2024-03-23T09:15:45;12.63;;;8.80;;
15114;SDS011;7658;51.456;7.622;2024-03-23T09:18:12;15.87;;;8.53;;
15114;SDS011;7658;51.456;7.622;2024-03-23T09:20:38;18.20;;;9.17;;
15114;SDS011;7658;51.456;7.622;2024-03-23T09:23:04;14.53;;;8.60;;
15114;SDS011;7658;51.456;7.622;2024-03-23T09:25:29;14.03;;;8.17;;
15114;SDS011;7658;51.456;7.622;2024-03-23T09:27:55;14.30;;;7.90;;
15114;SDS011;7658;51.456;7.622;2024-03-23T09:30:21;13.93;;;8.30;;
15114;SDS011;7658;51.456;7.622;2024-03-23T09:32:47;15.00;;;8.37;;
15114;SDS011;7658;51.456;7.622;2024-03-23T09:35:13;15.37;;;7.73;;
15114;SDS011;7658;51.456;7.622;2024-03-23T09:37:39;11.60;;;7.43;;
15114;SDS011;7658;51.456;7.622;2024-03-23T09:40:05;16.77;;;7.87;;
15114;SDS011;7658;51.456;7.622;2024-03-23T09:42:34;9.97;;;7.30;;
15114;SDS011;7658;51.456;7.622;2024-03-23T09:45:00;12.80;;;7.63;;
15114;SDS011;7658;51.456;7.622;2024-03-23T09:47:26;11.23;;;7.43;;
15114;SDS011;7658;51.456;7.622;2024-03-23T09:49:53;12.30;;;6.83;;
15114;SDS011;7658;51.456;7.622;2024-03-23T09:52:19;9.03;;;6.47;;
15114;SDS011;7658;51.456;7.622;2024-03-23T09:54:45;11.67;;;5.80;;
15114;SDS011;7658;51.456;7.622;2024-03-23T09:57:11;12.93;;;6.27;;
15114;SDS011;7658;51.456;7.622;2024-03-23T09:59:37;8.13;;;5.60;;
15114;SDS011;7658;51.456;7.622;2024-03-23T10:02:02;6.13;;;5.30;;
15114;SDS011;7658;51.456;7.622;2024-03-23T10:07:15;8.53;;;5.50;;
15114;SDS011;7658;51.456;7.622;2024-03-23T10:09:44;12.37;;;6.10;;
15114;SDS011;7658;51.456;7.622;2024-03-23T10:12:11;7.23;;;5.67;;
15114;SDS011;7658;51.456;7.622;2024-03-23T10:14:42;15.93;;;6.47;;
15114;SDS011;7658;51.456;7.622;2024-03-23T10:19:50;11.70;;;7.10;;
15114;SDS011;7658;51.456;7.622;2024-03-23T10:22:17;15.07;;;7.17;;
15114;SDS011;7658;51.456;7.622;2024-03-23T10:24:45;12.00;;;7.80;;
15114;SDS011;7658;51.456;7.622;2024-03-23T10:27:17;12.67;;;7.33;;
15114;SDS011;7658;51.456;7.622;2024-03-23T10:29:48;11.97;;;7.40;;
15114;SDS011;7658;51.456;7.622;2024-03-23T10:32:15;14.67;;;7.40;;
15114;SDS011;7658;51.456;7.622;2024-03-23T10:34:42;11.13;;;7.13;;
15114;SDS011;7658;51.456;7.622;2024-03-23T10:37:08;13.67;;;7.30;;
15114;SDS011;7658;51.456;7.622;2024-03-23T10:39:34;11.77;;;7.23;;
15114;SDS011;7658;51.456;7.622;2024-03-23T10:42:07;13.03;;;6.57;;
15114;SDS011;7658;51.456;7.622;2024-03-23T10:44:35;11.33;;;6.80;;
15114;SDS011;7658;51.456;7.622;2024-03-23T10:47:01;11.73;;;6.47;;
15114;SDS011;7658;51.456;7.622;2024-03-23T10:49:31;8.17;;;6.67;;
15114;SDS011;7658;51.456;7.622;2024-03-23T10:51:58;9.90;;;7.00;;
15114;SDS011;7658;51.456;7.622;2024-03-23T10:54:25;11.33;;;6.30;;
15114;SDS011;7658;51.456;7.622;2024-03-23T10:56:53;7.87;;;5.63;;
15114;SDS011;7658;51.456;7.622;2024-03-23T10:59:29;8.50;;;5.30;;
15114;SDS011;7658;51.456;7.622;2024-03-23T11:01:56;9.93;;;5.40;;
15114;SDS011;7658;51.456;7.622;2024-03-23T11:04:30;7.33;;;5.30;;
15114;SDS011;7658;51.456;7.622;2024-03-23T11:06:57;7.93;;;4.80;;
15114;SDS011;7658;51.456;7.622;2024-03-23T11:09:41;10.03;;;5.90;;
15114;SDS011;7658;51.456;7.622;2024-03-23T11:14:51;10.53;;;5.83;;
15114;SDS011;7658;51.456;7.622;2024-03-23T11:17:30;7.80;;;5.27;;
15114;SDS011;7658;51.456;7.622;2024-03-23T11:20:00;9.77;;;5.47;;
15114;SDS011;7658;51.456;7.622;2024-03-23T11:25:03;10.33;;;5.60;;
15114;SDS011;7658;51.456;7.622;2024-03-23T11:27:37;9.13;;;5.37;;
15114;SDS011;7658;51.456;7.622;2024-03-23T11:30:10;6.10;;;4.13;;
15114;SDS011;7658;51.456;7.622;2024-03-23T11:32:40;4.37;;;3.97;;
15114;SDS011;7658;51.456;7.622;2024-03-23T11:35:07;4.00;;;3.70;;
15114;SDS011;7658;51.456;7.622;2024-03-23T11:37:35;8.37;;;4.00;;
15114;SDS011;7658;51.456;7.622;2024-03-23T11:40:17;4.33;;;4.03;;
15114;SDS011;7658;51.456;7.622;2024-03-23T11:42:43;5.20;;;4.57;;
15114;SDS011;7658;51.456;7.622;2024-03-23T11:45:09;4.53;;;3.97;;
15114;SDS011;7658;51.456;7.622;2024-03-23T11:47:36;4.87;;;4.47;;
15114;SDS011;7658;51.456;7.622;2024-03-23T11:50:01;4.60;;;4.20;;
15114;SDS011;7658;51.456;7.622;2024-03-23T11:52:27;4.73;;;4.33;;
15114;SDS011;7658;51.456;7.622;2024-03-23T11:55:04;4.97;;;4.57;;
15114;SDS011;7658;51.456;7.622;2024-03-23T11:57:32;4.60;;;4.00;;
15114;SDS011;7658;51.456;7.622;2024-03-23T11:59:59;4.20;;;3.80;;
15114;SDS011;7658;51.456;7.622;2024-03-23T12:02:24;5.97;;;3.73;;
15114;SDS011;7658;51.456;7.622;2024-03-23T12:04:50;4.53;;;4.13;;
15114;SDS011;7658;51.456;7.622;2024-03-23T12:09:46;5.10;;;3.87;;
15114;SDS011;7658;51.456;7.622;2024-03-23T12:12:28;6.80;;;4.00;;
15114;SDS011;7658;51.456;7.622;2024-03-23T12:15:04;9.07;;;4.13;;
15114;SDS011;7658;51.456;7.622;2024-03-23T12:17:33;6.27;;;3.70;;
15114;SDS011;7658;51.456;7.622;2024-03-23T12:20:02;6.10;;;4.30;;
15114;SDS011;7658;51.456;7.622;2024-03-23T12:22:29;4.27;;;3.87;;
15114;SDS011;7658;51.456;7.622;2024-03-23T12:24:55;4.00;;;3.70;;
15114;SDS011;7658;51.456;7.622;2024-03-23T12:27:21;3.93;;;3.60;;
15114;SDS011;7658;51.456;7.622;2024-03-23T12:29:48;5.67;;;4.00;;
15114;SDS011;7658;51.456;7.622;2024-03-23T12:32:13;4.47;;;3.53;;
15114;SDS011;7658;51.456;7.622;2024-03-23T12:34:40;8.43;;;4.30;;
15114;SDS011;7658;51.456;7.622;2024-03-23T12:37:06;4.67;;;3.70;;
15114;SDS011;7658;51.456;7.622;2024-03-23T12:39:34;6.47;;;4.10;;
15114;SDS011;7658;51.456;7.622;2024-03-23T12:42:00;7.57;;;4.10;;
15114;SDS011;7658;51.456;7.622;2024-03-23T12:44:30;5.73;;;4.73;;
15114;SDS011;7658;51.456;7.622;2024-03-23T12:46:56;6.30;;;4.20;;
15114;SDS011;7658;51.456;7.622;2024-03-23T12:49:22;5.17;;;4.10;;
15114;SDS011;7658;51.456;7.622;2024-03-23T12:51:53;5.13;;;4.60;;
15114;SDS011;7658;51.456;7.622;2024-03-23T12:54:20;7.47;;;4.50;;
15114;SDS011;7658;51.456;7.622;2024-03-23T12:56:47;4.50;;;4.10;;
15114;SDS011;7658;51.456;7.622;2024-03-23T12:59:13;5.30;;;4.80;;
15114;SDS011;7658;51.456;7.622;2024-03-23T13:01:39;7.67;;;4.60;;
15114;SDS011;7658;51.456;7.622;2024-03-23T13:04:05;9.70;;;4.90;;
15114;SDS011;7658;51.456;7.622;2024-03-23T13:06:31;7.27;;;4.43;;
15114;SDS011;7658;51.456;7.622;2024-03-23T13:08:59;6.40;;;4.10;;
15114;SDS011;7658;51.456;7.622;2024-03-23T13:11:29;5.10;;;4.47;;
15114;SDS011;7658;51.456;7.622;2024-03-23T13:13:55;4.23;;;3.83;;
15114;SDS011;7658;51.456;7.622;2024-03-23T13:16:21;4.70;;;3.67;;
15114;SDS011;7658;51.456;7.622;2024-03-23T13:18:47;5.13;;;4.10;;
15114;SDS011;7658;51.456;7.622;2024-03-23T13:21:13;7.90;;;3.77;;
15114;SDS011;7658;51.456;7.622;2024-03-23T13:23:39;4.30;;;3.80;;
15114;SDS011;7658;51.456;7.622;2024-03-23T13:26:07;9.17;;;4.30;;
15114;SDS011;7658;51.456;7.622;2024-03-23T13:28:33;5.27;;;4.33;;
15114;SDS011;7658;51.456;7.622;2024-03-23T13:31:00;11.57;;;4.73;;
15114;SDS011;7658;51.456;7.622;2024-03-23T13:33:29;6.77;;;4.40;;
15114;SDS011;7658;51.456;7.622;2024-03-23T13:35:57;8.47;;;4.40;;
15114;SDS011;7658;51.456;7.622;2024-03-23T13:38:23;4.57;;;4.17;;
15114;SDS011;7658;51.456;7.622;2024-03-23T13:40:56;6.90;;;4.23;;
15114;SDS011;7658;51.456;7.622;2024-03-23T13:43:24;4.53;;;4.00;;
15114;SDS011;7658;51.456;7.622;2024-03-23T13:45:54;4.73;;;4.10;;
15114;SDS011;7658;51.456;7.622;2024-03-23T13:48:25;4.90;;;4.33;;
15114;SDS011;7658;51.456;7.622;2024-03-23T13:53:28;5.23;;;3.70;;
15114;SDS011;7658;51.456;7.622;2024-03-23T13:55:54;8.53;;;4.20;;
15114;SDS011;7658;51.456;7.622;2024-03-23T13:58:20;5.13;;;4.30;;
15114;SDS011;7658;51.456;7.622;2024-03-23T14:00:46;4.63;;;4.13;;
15114;SDS011;7658;51.456;7.622;2024-03-23T14:03:12;4.40;;;4.00;;
15114;SDS011;7658;51.456;7.622;2024-03-23T14:05:39;5.07;;;3.60;;
15114;SDS011;7658;51.456;7.622;2024-03-23T14:08:06;6.00;;;3.77;;
15114;SDS011;7658;51.456;7.622;2024-03-23T14:10:32;4.77;;;3.77;;
15114;SDS011;7658;51.456;7.622;2024-03-23T14:12:58;6.47;;;3.70;;
15114;SDS011;7658;51.456;7.622;2024-03-23T14:15:28;4.83;;;3.73;;
15114;SDS011;7658;51.456;7.622;2024-03-23T14:17:55;3.80;;;3.50;;
15114;SDS011;7658;51.456;7.622;2024-03-23T14:20:21;3.60;;;3.40;;
15114;SDS011;7658;51.456;7.622;2024-03-23T14:22:50;6.60;;;3.97;;
15114;SDS011;7658;51.456;7.622;2024-03-23T14:25:16;7.97;;;3.80;;
15114;SDS011;7658;51.456;7.622;2024-03-23T14:27:45;4.00;;;3.60;;
15114;SDS011;7658;51.456;7.622;2024-03-23T14:30:11;5.90;;;4.03;;
15114;SDS011;7658;51.456;7.622;2024-03-23T14:32:39;6.70;;;4.03;;
15114;SDS011;7658;51.456;7.622;2024-03-23T14:35:05;5.07;;;4.20;;
15114;SDS011;7658;51.456;7.622;2024-03-23T14:37:38;5.43;;;4.70;;
15114;SDS011;7658;51.456;7.622;2024-03-23T14:40:07;5.73;;;3.77;;
15114;SDS011;7658;51.456;7.622;2024-03-23T14:42:33;17.80;;;12.53;;
15114;SDS011;7658;51.456;7.622;2024-03-23T14:44:59;6.30;;;5.67;;
15114;SDS011;7658;51.456;7.622;2024-03-23T14:47:25;5.40;;;3.80;;
15114;SDS011;7658;51.456;7.622;2024-03-23T14:49:51;6.83;;;3.93;;
15114;SDS011;7658;51.456;7.622;2024-03-23T14:52:17;4.47;;;3.30;;
15114;SDS011;7658;51.456;7.622;2024-03-23T14:54:43;5.90;;;3.80;;
15114;SDS011;7658;51.456;7.622;2024-03-23T14:57:09;4.13;;;3.33;;
15114;SDS011;7658;51.456;7.622;2024-03-23T14:59:36;7.97;;;3.80;;
15114;SDS011;7658;51.456;7.622;2024-03-23T15:02:03;6.17;;;3.90;;
15114;SDS011;7658;51.456;7.622;2024-03-23T15:04:29;7.70;;;3.83;;
15114;SDS011;7658;51.456;7.622;2024-03-23T15:06:55;4.97;;;3.70;;
15114;SDS011;7658;51.456;7.622;2024-03-23T15:09:21;7.33;;;4.20;;
15114;SDS011;7658;51.456;7.622;2024-03-23T15:11:46;3.77;;;3.47;;
15114;SDS011;7658;51.456;7.622;2024-03-23T15:14:12;7.97;;;4.03;;
15114;SDS011;7658;51.456;7.622;2024-03-23T15:16:38;5.63;;;3.63;;
15114;SDS011;7658;51.456;7.622;2024-03-23T15:19:04;5.47;;;3.60;;
15114;SDS011;7658;51.456;7.622;2024-03-23T15:21:31;8.87;;;3.53;;
15114;SDS011;7658;51.456;7.622;2024-03-23T15:23:57;5.30;;;4.13;;
15114;SDS011;7658;51.456;7.622;2024-03-23T15:26:23;5.53;;;3.70;;
15114;SDS011;7658;51.456;7.622;2024-03-23T15:28:49;3.93;;;3.40;;
15114;SDS011;7658;51.456;7.622;2024-03-23T15:31:24;5.67;;;3.43;;
15114;SDS011;7658;51.456;7.622;2024-03-23T15:33:50;9.03;;;3.80;;
15114;SDS011;7658;51.456;7.622;2024-03-23T15:36:16;4.17;;;3.50;;
15114;SDS011;7658;51.456;7.622;2024-03-23T15:38:42;6.57;;;3.73;;
15114;SDS011;7658;51.456;7.622;2024-03-23T15:41:09;5.43;;;3.77;;
15114;SDS011;7658;51.456;7.622;2024-03-23T15:43:35;3.97;;;3.50;;
15114;SDS011;7658;51.456;7.622;2024-03-23T15:46:01;7.13;;;3.90;;
15114;SDS011;7658;51.456;7.622;2024-03-23T15:48:29;6.87;;;4.00;;
15114;SDS011;7658;51.456;7.622;2024-03-23T15:51:04;6.33;;;4.43;;
15114;SDS011;7658;51.456;7.622;2024-03-23T15:53:30;6.90;;;4.27;;
15114;SDS011;7658;51.456;7.622;2024-03-23T15:56:00;4.33;;;3.93;;
15114;SDS011;7658;51.456;7.622;2024-03-23T15:58:28;6.43;;;4.20;;
15114;SDS011;7658;51.456;7.622;2024-03-23T16:00:55;5.97;;;3.70;;